Time;durP1;ratioP1;P1;durP2;ratioP2;P2;SDS_P1;SDS_P2;PMS_P1;PMS_P2;Temp;Humidity;BMP_temperature;BMP_pressure;BME280_temperature;BME280_humidity;BME280_pressure;Samples;Min_cycle;Max_cycle;Signal;HPM_P1;HPM_P2
2021/08/16 00:00:50;;;;;;;18.80;7.05;;;;;;;20.65;66.71;100895.38;1676882;84;21058;-66
2021/08/16 00:03:17;;;;;;;13.48;6.72;;;;;;;20.63;66.85;100897.34;1681352;83;21449;-66
2021/08/16 00:05:45;;;;;;;14.28;6.83;;;;;;;20.62;67.08;100895.13;1659873;84;21024;-65
2021/08/16 00:10:44;;;;;;;14.20;7.17;;;;;;;20.61;67.37;100890.16;1676522;83;21057;-66
2021/08/16 00:13:11;;;;;;;14.43;7.05;;;;;;;20.61;67.53;100900.20;1686451;83;21950;-67
2021/08/16 00:18:47;;;;;;;14.05;7.05;;;;;;;20.53;67.86;100884.91;1677990;84;21511;-66
2021/08/16 00:21:14;;;;;;;17.10;6.85;;;;;;;20.46;68.17;100898.14;1685485;84;21527;-66
2021/08/16 00:31:55;;;;;;;13.45;6.55;;;;;;;20.51;68.47;100896.41;1693802;83;21633;-66
2021/08/16 00:34:22;;;;;;;21.35;7.40;;;;;;;20.52;68.61;100887.26;1679839;85;21047;-67
2021/08/16 00:39:24;;;;;;;13.03;8.00;;;;;;;20.49;68.83;100885.66;1679911;83;21833;-66
2021/08/16 00:41:51;;;;;;;12.65;6.70;;;;;;;20.50;68.87;100886.51;1693850;83;21064;-66
2021/08/16 00:44:18;;;;;;;20.15;8.08;;;;;;;20.49;68.98;100891.10;1689306;83;21094;-66
2021/08/16 00:46:44;;;;;;;16.55;7.95;;;;;;;20.50;69.16;100890.59;1683494;83;21792;-66
2021/08/16 00:49:11;;;;;;;17.95;7.60;;;;;;;20.56;69.00;100889.64;1646031;85;21103;-66
2021/08/16 00:51:38;;;;;;;14.93;7.55;;;;;;;20.58;68.86;100886.31;1679437;84;21127;-65
2021/08/16 00:54:22;;;;;;;13.03;7.40;;;;;;;20.59;68.86;100888.55;1678709;83;21567;-65
2021/08/16 00:57:10;;;;;;;19.35;7.15;;;;;;;20.57;68.78;100879.12;1684052;84;21014;-65
2021/08/16 00:59:39;;;;;;;15.80;6.50;;;;;;;20.56;68.74;100877.90;1648728;85;21088;-65
2021/08/16 01:07:31;;;;;;;13.10;6.55;;;;;;;20.54;68.88;100888.89;1673604;84;21142;-65
2021/08/16 01:15:20;;;;;;;13.85;7.08;;;;;;;20.45;68.92;100882.28;1681820;84;21059;-65
2021/08/16 01:17:47;;;;;;;15.70;6.58;;;;;;;20.45;68.84;100875.98;1690958;83;21233;-65
2021/08/16 01:20:15;;;;;;;11.97;7.22;;;;;;;20.45;68.91;100882.28;1662567;84;21538;-65
2021/08/16 01:25:37;;;;;;;12.93;7.05;;;;;;;20.39;69.14;100880.03;1683641;84;21043;-65
2021/08/16 01:28:04;;;;;;;12.80;6.78;;;;;;;20.38;69.27;100878.77;1684850;84;21639;-65
2021/08/16 01:30:30;;;;;;;13.60;6.80;;;;;;;20.33;69.35;100881.34;1656651;85;22035;-66
2021/08/16 01:33:10;;;;;;;15.60;7.00;;;;;;;20.30;69.49;100882.05;1684702;83;21115;-65
2021/08/16 01:35:37;;;;;;;12.23;7.15;;;;;;;20.25;69.68;100875.61;1683981;84;21059;-65
2021/08/16 01:38:04;;;;;;;15.10;7.12;;;;;;;20.22;69.86;100877.68;1689138;83;21096;-65
2021/08/16 01:40:31;;;;;;;13.40;7.15;;;;;;;20.19;70.07;100881.48;1683553;84;21177;-65
2021/08/16 01:45:30;;;;;;;16.85;7.37;;;;;;;20.13;70.31;100876.50;1667883;85;21568;-65
2021/08/16 01:50:27;;;;;;;11.93;7.20;;;;;;;20.10;70.50;100878.09;1667832;84;21644;-66
2021/08/16 01:58:19;;;;;;;21.42;7.75;;;;;;;20.01;71.00;100872.36;1688706;83;21459;-66
2021/08/16 02:00:46;;;;;;;10.00;7.35;;;;;;;19.98;71.31;100875.78;1697649;83;21660;-66
2021/08/16 02:03:13;;;;;;;22.48;8.18;;;;;;;19.94;71.51;100871.05;1691384;84;21117;-67
2021/08/16 02:05:41;;;;;;;11.97;7.28;;;;;;;19.87;71.71;100872.45;1695132;82;21298;-67
2021/08/16 02:08:08;;;;;;;13.90;7.75;;;;;;;19.84;71.97;100882.20;1667523;84;21119;-67
2021/08/16 02:10:46;;;;;;;19.17;7.65;;;;;;;19.82;72.16;100869.20;1692827;82;21074;-67
2021/08/16 02:13:15;;;;;;;12.03;7.20;;;;;;;19.80;72.43;100877.97;1666078;85;21036;-66
2021/08/16 02:15:42;;;;;;;14.07;7.42;;;;;;;19.78;72.66;100875.82;1699697;84;21643;-66
2021/08/16 02:18:09;;;;;;;13.90;7.45;;;;;;;19.83;72.69;100876.38;1704357;82;21066;-66
2021/08/16 02:20:48;;;;;;;14.47;7.55;;;;;;;19.89;72.58;100878.17;1666781;84;21071;-66
2021/08/16 02:25:56;;;;;;;16.80;7.78;;;;;;;20.00;72.40;100874.67;1667003;84;21107;-66
2021/08/16 02:28:25;;;;;;;14.43;7.35;;;;;;;20.05;72.11;100875.70;1702635;82;21082;-67
2021/08/16 02:33:43;;;;;;;15.28;7.75;;;;;;;20.01;71.88;100875.08;1703315;82;21791;-67
2021/08/16 02:36:10;;;;;;;18.75;7.42;;;;;;;19.99;71.88;100870.21;1702645;82;21118;-67
2021/08/16 02:41:22;;;;;;;18.10;7.90;;;;;;;20.00;71.90;100874.67;1696376;82;21499;-67
2021/08/16 02:43:51;;;;;;;15.55;8.28;;;;;;;20.02;71.89;100880.02;1697803;82;21096;-66
2021/08/16 02:46:36;;;;;;;10.38;7.45;;;;;;;20.03;71.95;100879.91;1703836;82;21095;-66
2021/08/16 02:49:02;;;;;;;14.83;8.10;;;;;;;20.04;71.92;100878.93;1698349;82;20992;-65
2021/08/16 02:51:29;;;;;;;13.55;8.13;;;;;;;20.00;71.91;100873.82;1703827;82;21128;-65
2021/08/16 02:56:49;;;;;;;14.38;8.50;;;;;;;19.93;72.20;100878.83;1699099;82;21565;-66
2021/08/16 03:02:15;;;;;;;16.93;8.30;;;;;;;19.84;72.61;100887.64;1705328;82;21186;-67
2021/08/16 03:07:26;;;;;;;12.03;8.75;;;;;;;19.82;72.92;100886.38;1667384;84;21102;-68
2021/08/16 03:12:22;;;;;;;14.73;7.55;;;;;;;19.94;72.98;100879.72;1666279;84;21694;-66
2021/08/16 03:17:29;;;;;;;15.70;8.00;;;;;;;20.11;72.45;100879.33;1668067;84;21564;-66
2021/08/16 03:30:01;;;;;;;17.10;8.48;;;;;;;20.43;71.21;100892.89;1699091;83;20986;-65
2021/08/16 03:32:28;;;;;;;25.40;8.50;;;;;;;20.50;70.87;100892.84;1635559;87;21147;-66
2021/08/16 03:34:55;;;;;;;22.48;8.25;;;;;;;20.56;70.62;100896.97;1682537;84;21308;-65
2021/08/16 03:53:17;;;;;;;30.90;13.48;;;;;;;21.10;68.88;100913.31;1677145;84;21071;-66
2021/08/16 03:55:44;;;;;;;29.35;12.90;;;;;;;21.17;68.80;100905.53;1674149;84;22220;-66
2021/08/16 03:58:11;;;;;;;24.37;11.80;;;;;;;21.25;68.59;100903.58;1641469;85;21123;-67
2021/08/16 04:00:53;;;;;;;21.90;11.28;;;;;;;21.32;68.31;100908.91;1694581;84;21053;-66
2021/08/16 04:03:23;;;;;;;18.23;10.20;;;;;;;21.42;67.93;100904.48;1652256;86;21921;-65
2021/08/16 04:11:20;;;;;;;28.20;9.98;;;;;;;21.82;66.51;100909.17;1689864;83;21508;-65
2021/08/16 04:13:53;;;;;;;27.85;9.73;;;;;;;21.97;66.22;100905.17;1696413;83;21146;-66
2021/08/16 04:18:58;;;;;;;25.30;9.55;;;;;;;22.24;65.37;100904.42;1692783;83;21091;-66
2021/08/16 04:21:53;;;;;;;26.30;9.45;;;;;;;22.38;64.68;100905.52;1688360;83;21477;-66
2021/08/16 04:24:20;;;;;;;23.38;8.90;;;;;;;22.50;64.25;100909.13;1690775;83;28276;-65
2021/08/16 04:26:48;;;;;;;24.27;10.00;;;;;;;22.64;63.91;100907.97;1691436;83;21119;-65
2021/08/16 04:29:15;;;;;;;19.23;9.20;;;;;;;22.75;63.36;100904.33;1694159;83;21130;-65
2021/08/16 04:31:42;;;;;;;14.63;8.65;;;;;;;22.88;63.11;100903.67;1692857;83;21157;-65
2021/08/16 04:34:24;;;;;;;19.82;9.00;;;;;;;23.00;62.42;100903.61;1691620;83;21159;-65
2021/08/16 04:36:54;;;;;;;18.32;9.38;;;;;;;23.09;62.12;100915.11;1680088;83;21103;-65
2021/08/16 04:39:38;;;;;;;14.53;9.33;;;;;;;23.22;61.81;100918.16;1696483;83;21106;-66
2021/08/16 04:42:05;;;;;;;23.40;8.65;;;;;;;23.33;61.45;100919.52;1693922;83;21816;-67
2021/08/16 04:44:32;;;;;;;18.12;8.40;;;;;;;23.44;60.96;100920.80;1689870;83;21328;-65
2021/08/16 04:46:59;;;;;;;15.03;8.58;;;;;;;23.56;60.79;100924.85;1686340;83;21059;-65
2021/08/16 04:49:27;;;;;;;18.52;8.93;;;;;;;23.67;60.33;100930.75;1673945;83;21137;-66
2021/08/16 05:02:33;;;;;;;17.87;9.35;;;;;;;24.29;58.52;100924.77;1685107;83;21055;-64
2021/08/16 05:07:55;;;;;;;20.08;8.80;;;;;;;24.50;57.97;100929.30;1704071;82;21525;-65
2021/08/16 05:10:22;;;;;;;19.73;9.33;;;;;;;24.59;57.71;100935.29;1670244;84;21087;-65
2021/08/16 05:23:20;;;;;;;29.32;8.60;;;;;;;25.14;56.63;100943.55;1703593;84;21017;-64
2021/08/16 05:25:47;;;;;;;17.17;8.85;;;;;;;25.28;56.20;100940.86;1705166;82;21113;-64
2021/08/16 05:28:15;;;;;;;16.23;8.90;;;;;;;25.42;55.76;100947.77;1703985;82;21054;-64
2021/08/16 05:31:00;;;;;;;21.87;9.25;;;;;;;25.54;55.58;100943.54;1703051;84;21069;-63
2021/08/16 05:33:27;;;;;;;25.08;9.08;;;;;;;25.67;55.19;100944.06;1703387;84;22220;-64
2021/08/16 05:36:13;;;;;;;16.30;9.25;;;;;;;25.80;54.88;100941.00;1674276;84;21098;-64
2021/08/16 05:38:45;;;;;;;17.65;9.33;;;;;;;25.94;54.75;100936.89;1703707;82;21129;-63
2021/08/16 05:41:14;;;;;;;23.22;9.43;;;;;;;26.13;54.27;100932.34;1703952;84;21586;-64
2021/08/16 05:46:22;;;;;;;26.97;9.03;;;;;;;26.40;53.21;100926.52;1705853;83;21107;-63
2021/08/16 05:51:49;;;;;;;21.85;9.55;;;;;;;26.70;52.44;100924.46;1707277;82;21641;-63
2021/08/16 05:59:37;;;;;;;15.53;8.00;;;;;;;27.20;50.82;100931.83;1705506;83;21180;-65
2021/08/16 06:02:04;;;;;;;16.97;8.63;;;;;;;27.36;50.26;100937.48;1703300;82;21051;-66
2021/08/16 06:04:30;;;;;;;17.73;8.18;;;;;;;27.50;49.96;100937.91;1701332;83;21487;-65
2021/08/16 06:12:20;;;;;;;16.27;9.10;;;;;;;27.90;48.40;100940.61;1693196;83;21075;-66
2021/08/16 06:17:59;;;;;;;16.97;7.47;;;;;;;28.11;48.02;100946.23;1689071;83;21070;-66
2021/08/16 06:20:26;;;;;;;33.80;8.83;;;;;;;28.25;48.17;100942.02;1692680;83;21114;-68
2021/08/16 06:22:55;;;;;;;34.88;9.28;;;;;;;28.42;47.44;100944.34;1698873;83;21146;-66
2021/08/16 06:28:21;;;;;;;22.50;8.00;;;;;;;28.67;46.85;100949.94;1775224;78;23728;-65
2021/08/16 06:30:50;;;;;;;11.33;7.30;;;;;;;28.68;46.05;100955.80;1753591;79;21007;-63
2021/08/16 06:36:05;;;;;;;10.25;6.60;;;;;;;28.78;43.64;100946.84;1758991;79;21051;-65
2021/08/16 06:41:23;;;;;;;19.98;6.47;;;;;;;28.85;43.33;100951.20;1759063;80;21702;-63
2021/08/16 06:43:51;;;;;;;16.23;6.70;;;;;;;28.95;42.56;100949.13;1754856;80;21483;-64
2021/08/16 06:46:18;;;;;;;15.00;6.90;;;;;;;29.10;42.43;100950.73;1761172;79;21948;-63
2021/08/16 06:48:45;;;;;;;19.17;6.72;;;;;;;29.18;42.73;100944.86;1760731;80;21079;-65
2021/08/16 06:51:23;;;;;;;26.57;7.55;;;;;;;29.26;42.37;100945.72;1760536;80;21572;-65
2021/08/16 06:53:50;;;;;;;15.60;6.90;;;;;;;29.34;42.27;100949.51;1753981;80;21047;-61
2021/08/16 06:56:17;;;;;;;16.85;6.58;;;;;;;29.44;40.98;100951.09;1767718;80;21221;-63
2021/08/16 06:58:51;;;;;;;14.53;6.85;;;;;;;29.48;40.11;100956.26;1760313;80;22322;-63
2021/08/16 07:01:42;;;;;;;22.22;7.90;;;;;;;29.46;40.32;100952.31;1767411;79;21123;-62
2021/08/16 07:04:09;;;;;;;49.45;8.88;;;;;;;29.54;39.92;100955.05;1745512;80;21063;-62
2021/08/16 07:06:36;;;;;;;25.12;7.62;;;;;;;29.62;39.80;100954.18;1759395;80;21032;-62
2021/08/16 07:11:49;;;;;;;41.28;9.23;;;;;;;29.77;40.12;100960.39;1765172;79;21425;-62
2021/08/16 07:14:19;;;;;;;21.48;8.15;;;;;;;29.86;40.16;100952.41;1757562;80;21039;-63
2021/08/16 07:16:46;;;;;;;18.07;8.08;;;;;;;29.93;40.65;100954.80;1760516;80;20970;-62
2021/08/16 07:19:13;;;;;;;17.42;7.67;;;;;;;30.08;40.62;100951.34;1753006;80;21055;-62
2021/08/16 07:21:40;;;;;;;11.57;7.75;;;;;;;30.18;40.47;100948.38;1727998;81;21043;-62
2021/08/16 07:24:08;;;;;;;13.90;7.53;;;;;;;30.26;40.31;100953.35;1734642;81;21141;-65
2021/08/16 07:26:36;;;;;;;18.32;8.15;;;;;;;30.35;39.64;100954.69;1709962;82;21135;-63
2021/08/16 07:29:02;;;;;;;19.05;8.28;;;;;;;30.42;39.89;100952.95;1702418;83;21102;-63
2021/08/16 07:31:31;;;;;;;17.60;8.38;;;;;;;30.55;39.87;100960.13;1683058;83;22132;-64
2021/08/16 07:33:59;;;;;;;16.32;8.40;;;;;;;30.69;40.84;100950.75;1714393;82;21146;-64
2021/08/16 07:36:27;;;;;;;24.40;7.92;;;;;;;30.73;41.69;100952.10;1709431;82;21160;-64
2021/08/16 07:38:54;;;;;;;24.77;8.23;;;;;;;30.73;41.50;100952.10;1719161;81;21426;-64
2021/08/16 07:44:11;;;;;;;13.78;7.97;;;;;;;30.79;41.85;100943.06;1706867;82;22171;-63
2021/08/16 07:46:39;;;;;;;15.60;7.87;;;;;;;30.89;41.88;100951.66;1694290;82;22074;-64
2021/08/16 07:49:06;;;;;;;15.80;7.50;;;;;;;30.94;40.99;100954.73;1693583;82;21465;-64
2021/08/16 07:51:33;;;;;;;16.55;7.22;;;;;;;30.94;40.76;100950.05;1699455;82;21370;-62
2021/08/16 07:54:01;;;;;;;22.40;7.78;;;;;;;31.01;41.13;100951.56;1698210;82;21012;-62
2021/08/16 07:56:29;;;;;;;19.20;7.72;;;;;;;31.07;40.68;100952.73;1696174;82;21083;-62
2021/08/16 07:58:55;;;;;;;12.30;7.60;;;;;;;31.09;40.32;100956.18;1696585;83;21115;-62
2021/08/16 08:01:24;;;;;;;15.03;8.40;;;;;;;31.06;40.82;100957.43;1725500;81;21190;-62
2021/08/16 08:03:52;;;;;;;15.60;7.55;;;;;;;31.09;40.24;100956.18;1700381;82;21056;-62
2021/08/16 08:06:24;;;;;;;15.23;7.50;;;;;;;31.08;40.27;100952.56;1691228;83;21076;-62
2021/08/16 08:08:52;;;;;;;19.12;8.50;;;;;;;31.12;41.78;100946.98;1700943;82;21076;-62
2021/08/16 08:11:20;;;;;;;17.05;8.95;;;;;;;31.17;42.47;100946.45;1695998;83;21053;-63
2021/08/16 08:13:49;;;;;;;16.60;8.73;;;;;;;31.18;41.55;100952.32;1706706;83;20988;-61
2021/08/16 08:16:16;;;;;;;13.72;8.15;;;;;;;31.19;42.90;100949.88;1701852;83;21080;-61
2021/08/16 08:18:43;;;;;;;15.75;8.40;;;;;;;31.21;43.57;100955.25;1702672;83;21095;-62
2021/08/16 08:21:10;;;;;;;17.20;8.68;;;;;;;31.26;43.92;100956.93;1700320;83;21601;-61
2021/08/16 08:23:38;;;;;;;16.90;8.00;;;;;;;31.24;43.64;100953.49;1729603;81;21565;-61
2021/08/16 08:26:05;;;;;;;19.30;8.20;;;;;;;31.15;43.10;100949.38;1726807;81;21145;-61
2021/08/16 08:28:32;;;;;;;17.48;9.10;;;;;;;31.10;43.42;100951.86;1722072;81;21079;-63
2021/08/16 08:30:59;;;;;;;12.55;8.55;;;;;;;31.12;42.92;100953.03;1723323;81;21057;-60
2021/08/16 08:33:26;;;;;;;15.78;8.35;;;;;;;31.16;42.26;100946.95;1725213;81;21388;-61
2021/08/16 08:35:53;;;;;;;18.50;8.53;;;;;;;31.17;42.70;100956.14;1727663;81;21210;-61
2021/08/16 08:38:20;;;;;;;12.18;7.85;;;;;;;31.21;42.72;100960.28;1724481;81;21110;-62
2021/08/16 08:40:48;;;;;;;17.50;8.35;;;;;;;31.23;42.34;100960.08;1697970;82;21126;-62
2021/08/16 08:43:15;;;;;;;16.27;8.30;;;;;;;31.29;42.53;100957.98;1695798;82;20992;-62
2021/08/16 08:45:45;;;;;;;19.70;8.40;;;;;;;31.29;42.42;100956.59;1706627;83;21095;-63
2021/08/16 08:48:12;;;;;;;14.85;9.10;;;;;;;31.24;42.21;100954.88;1685670;83;21223;-62
2021/08/16 08:50:40;;;;;;;15.80;8.23;;;;;;;31.18;42.23;100961.13;1700766;83;22179;-63
2021/08/16 08:53:07;;;;;;;12.00;8.58;;;;;;;31.09;42.01;100959.83;1704947;82;21119;-62
2021/08/16 08:55:34;;;;;;;16.97;7.60;;;;;;;31.08;41.93;100956.72;1703955;82;21065;-62
2021/08/16 08:58:04;;;;;;;18.48;8.63;;;;;;;31.07;42.09;100961.05;1696278;82;21589;-62
2021/08/16 09:00:31;;;;;;;14.98;8.05;;;;;;;31.06;42.29;100954.66;1705574;83;21043;-62
2021/08/16 09:03:03;;;;;;;17.17;8.38;;;;;;;31.07;41.96;100958.27;1693626;83;21151;-62
2021/08/16 09:05:31;;;;;;;19.07;7.65;;;;;;;31.12;42.15;100958.06;1703069;83;21033;-62
2021/08/16 09:07:59;;;;;;;15.50;8.25;;;;;;;31.25;41.33;100952.45;1704652;82;21099;-62
2021/08/16 09:10:27;;;;;;;18.75;8.00;;;;;;;31.34;41.27;100943.55;1714088;81;21218;-62
2021/08/16 09:13:25;;;;;;;11.63;8.25;;;;;;;31.37;41.52;100944.05;1709189;81;21006;-62
2021/08/16 09:15:55;;;;;;;10.88;7.58;;;;;;;31.39;41.04;100945.22;1731993;81;21133;-63
2021/08/16 09:18:30;;;;;;;16.32;7.67;;;;;;;31.40;40.69;100936.73;1727295;81;20963;-63
2021/08/16 09:20:57;;;;;;;12.37;6.75;;;;;;;31.47;39.85;100938.75;1718217;81;21174;-65
2021/08/16 09:23:24;;;;;;;13.28;7.08;;;;;;;31.53;39.13;100936.09;1716133;81;21612;-64
2021/08/16 09:25:57;;;;;;;10.10;6.90;;;;;;;31.56;38.70;100937.64;1731385;81;21164;-63
2021/08/16 09:28:31;;;;;;;12.00;6.80;;;;;;;31.61;38.18;100937.92;1705889;82;21591;-63
2021/08/16 09:31:15;;;;;;;;;;;;;;;31.67;38.31;100935.77;1697401;83;20941;-62
2021/08/16 09:33:56;;;;;;;11.05;7.00;;;;;;;31.70;37.86;100938.70;1690946;83;20148;-63
2021/08/16 09:36:35;;;;;;;9.58;6.80;;;;;;;31.65;38.46;100937.03;1700966;82;21423;-60
2021/08/16 09:39:02;;;;;;;15.53;6.83;;;;;;;31.59;38.12;100931.72;1709992;82;21469;-62
2021/08/16 09:41:29;;;;;;;18.00;6.17;;;;;;;31.54;38.40;100925.89;1705264;83;21743;-63
2021/08/16 09:44:11;;;;;;;14.80;6.35;;;;;;;31.53;38.71;100921.40;1703947;83;22308;-61
2021/08/16 09:46:38;;;;;;;9.20;6.10;;;;;;;31.51;37.60;100916.03;1717532;82;21616;-62
2021/08/16 09:49:07;;;;;;;15.48;5.87;;;;;;;31.48;37.48;100911.37;1730819;81;21150;-63
2021/08/16 09:51:36;;;;;;;9.50;5.80;;;;;;;31.47;37.12;100911.05;1727715;81;21147;-63
2021/08/16 09:54:03;;;;;;;10.53;6.22;;;;;;;31.44;35.62;100908.15;1726770;81;21152;-60
2021/08/16 09:56:31;;;;;;;15.48;6.20;;;;;;;31.34;35.61;100905.64;1727243;81;21235;-62
2021/08/16 09:58:58;;;;;;;11.30;6.03;;;;;;;31.28;36.04;100903.60;1727521;81;21385;-63
2021/08/16 10:01:25;;;;;;;8.38;5.33;;;;;;;31.22;35.90;100898.31;1721809;81;21055;-59
2021/08/16 10:03:54;;;;;;;10.18;6.58;;;;;;;31.15;35.71;100903.70;1691536;81;21007;-61
2021/08/16 10:06:22;;;;;;;10.85;5.80;;;;;;;31.08;36.53;100904.63;1730525;81;21088;-61
2021/08/16 10:08:52;;;;;;;11.38;5.97;;;;;;;31.04;36.92;100909.66;1730798;81;20906;-61
2021/08/16 10:11:22;;;;;;;9.98;5.97;;;;;;;31.01;36.65;100906.77;1710915;82;21027;-61
2021/08/16 10:13:54;;;;;;;10.08;6.00;;;;;;;31.06;37.15;100903.45;1706766;82;21546;-60
2021/08/16 10:16:25;;;;;;;12.15;6.80;;;;;;;31.12;37.36;100900.43;1713175;81;21060;-61
2021/08/16 10:19:04;;;;;;;9.98;6.00;;;;;;;31.14;38.07;100901.98;1705895;81;21157;-61
2021/08/16 10:21:35;;;;;;;11.05;5.62;;;;;;;31.15;38.43;100902.82;1690911;83;21195;-61
2021/08/16 10:24:02;;;;;;;8.60;5.45;;;;;;;31.12;36.75;100903.20;1699956;82;21096;-61
2021/08/16 10:26:33;;;;;;;9.90;5.70;;;;;;;30.99;36.60;100902.45;1728448;81;21143;-60
2021/08/16 10:29:14;;;;;;;10.32;5.00;;;;;;;30.91;36.21;100906.67;1731373;81;20968;-59
2021/08/16 10:32:06;;;;;;;9.73;5.33;;;;;;;30.81;36.67;100905.53;1706970;83;21074;-60
2021/08/16 10:34:56;;;;;;;12.85;5.35;;;;;;;30.76;37.83;100899.70;1733859;80;20905;-60
2021/08/16 10:37:51;;;;;;;12.68;6.00;;;;;;;30.79;37.91;100892.41;1692285;83;21377;-59
2021/08/16 10:40:25;;;;;;;11.35;5.45;;;;;;;30.81;37.69;100895.84;1713193;81;21591;-60
2021/08/16 10:42:55;;;;;;;7.53;5.53;;;;;;;30.77;37.92;100895.34;1711067;81;20982;-59
2021/08/16 10:45:33;;;;;;;15.28;5.95;;;;;;;30.77;37.68;100889.81;1719621;81;21566;-59
2021/08/16 10:48:02;;;;;;;8.13;5.70;;;;;;;30.73;37.20;100882.92;1719864;82;21520;-60
2021/08/16 10:50:29;;;;;;;17.00;5.30;;;;;;;30.62;37.14;100881.95;1709228;81;21111;-60
2021/08/16 10:53:04;;;;;;;8.05;5.42;;;;;;;30.57;36.91;100886.10;1714800;82;21039;-60
2021/08/16 10:55:39;;;;;;;11.40;5.45;;;;;;;30.53;37.87;100886.67;1715112;81;21118;-59
2021/08/16 10:58:09;;;;;;;10.65;4.60;;;;;;;30.51;37.39;100884.63;1723703;81;22048;-58
2021/08/16 11:00:37;;;;;;;9.33;5.45;;;;;;;30.41;37.64;100882.08;1737513;81;21053;-59
2021/08/16 11:03:05;;;;;;;13.75;5.10;;;;;;;30.28;38.21;100879.38;1726942;81;21170;-61
2021/08/16 11:05:39;;;;;;;7.87;5.15;;;;;;;30.22;38.73;100888.91;1726584;81;21080;-61
2021/08/16 11:08:08;;;;;;;7.33;4.70;;;;;;;30.16;38.20;100879.42;1731536;81;21099;-60
2021/08/16 11:10:43;;;;;;;10.32;5.20;;;;;;;30.09;37.42;100877.92;1729003;81;21015;-59
2021/08/16 11:13:19;;;;;;;8.80;5.10;;;;;;;30.03;38.24;100879.16;1728840;81;28231;-58
2021/08/16 11:15:48;;;;;;;10.05;5.40;;;;;;;29.97;38.37;100871.90;1733444;81;21076;-58
2021/08/16 11:18:22;;;;;;;9.80;5.60;;;;;;;29.94;37.17;100877.76;1731921;81;21083;-60
2021/08/16 11:20:57;;;;;;;10.28;5.50;;;;;;;29.91;38.00;100868.45;1731657;81;21592;-59
2021/08/16 11:23:26;;;;;;;6.12;4.95;;;;;;;29.87;37.74;100867.09;1701632;83;21829;-60
2021/08/16 11:25:56;;;;;;;11.80;5.05;;;;;;;29.82;38.01;100859.86;1712523;81;21481;-59
2021/08/16 11:28:29;;;;;;;8.08;4.75;;;;;;;29.83;38.31;100857.44;1704346;83;21051;-61
2021/08/16 11:31:07;;;;;;;8.95;4.87;;;;;;;29.87;38.52;100856.03;1705538;81;21346;-60
2021/08/16 11:33:36;;;;;;;10.82;4.92;;;;;;;29.88;38.13;100856.38;1696719;83;21107;-60
2021/08/16 11:36:11;;;;;;;8.43;5.53;;;;;;;29.85;37.97;100849.83;1729370;81;21154;-60
2021/08/16 11:38:41;;;;;;;6.17;4.62;;;;;;;29.80;37.71;100852.27;1727700;81;21163;-58
2021/08/16 11:41:13;;;;;;;8.85;5.20;;;;;;;29.72;37.60;100848.48;1725220;81;21060;-59
2021/08/16 11:43:42;;;;;;;5.73;4.87;;;;;;;29.65;37.58;100843.33;1724575;81;21072;-59
2021/08/16 11:46:16;;;;;;;8.08;5.25;;;;;;;29.59;37.77;100845.44;1725707;81;21084;-58
2021/08/16 11:48:52;;;;;;;6.47;4.80;;;;;;;29.60;39.12;100841.63;1728902;81;21012;-59
2021/08/16 11:51:19;;;;;;;7.33;5.20;;;;;;;29.66;39.40;100849.20;1718983;81;23554;-59
2021/08/16 11:53:48;;;;;;;9.75;5.03;;;;;;;29.72;39.47;100844.88;1724412;81;21470;-64
2021/08/16 11:56:16;;;;;;;9.40;5.45;;;;;;;29.75;39.51;100840.91;1725944;81;21095;-63
2021/08/16 11:58:43;;;;;;;7.05;4.87;;;;;;;29.70;39.14;100842.27;1711576;81;21503;-60
2021/08/16 12:01:11;;;;;;;9.40;5.03;;;;;;;29.63;38.41;100838.51;1685867;82;22067;-60
2021/08/16 12:03:38;;;;;;;7.33;4.78;;;;;;;29.54;39.37;100836.83;1693542;83;21124;-60
2021/08/16 12:06:13;;;;;;;9.40;5.10;;;;;;;29.48;39.42;100830.10;1709303;83;21098;-64
2021/08/16 12:08:41;;;;;;;7.65;4.62;;;;;;;29.43;39.91;100829.24;1697885;83;21185;-64
2021/08/16 12:11:13;;;;;;;10.75;5.33;;;;;;;29.42;41.25;100842.70;1702797;81;21525;-60
2021/08/16 12:13:40;;;;;;;6.65;5.15;;;;;;;29.40;40.51;100835.59;1716225;82;21170;-61
2021/08/16 12:16:08;;;;;;;10.93;5.33;;;;;;;29.31;41.34;100837.54;1714192;82;21601;-60
2021/08/16 12:18:37;;;;;;;9.80;5.22;;;;;;;29.26;42.67;100834.42;1706022;82;20913;-61
2021/08/16 12:21:04;;;;;;;10.80;5.20;;;;;;;29.22;42.71;100837.19;1709206;82;21442;-59
2021/08/16 12:23:34;;;;;;;6.42;5.15;;;;;;;29.16;41.95;100831.34;1710597;82;21476;-64
2021/08/16 12:26:03;;;;;;;7.60;4.60;;;;;;;29.12;41.44;100828.59;1701927;82;21020;-63
2021/08/16 12:28:42;;;;;;;8.90;5.15;;;;;;;29.11;41.91;100831.52;1700206;82;21099;-64
2021/08/16 12:31:19;;;;;;;8.90;5.58;;;;;;;29.04;42.26;100835.48;1698503;82;22318;-64
2021/08/16 12:33:57;;;;;;;9.50;5.05;;;;;;;29.00;41.90;100833.61;1711836;82;21572;-60
2021/08/16 12:36:36;;;;;;;9.63;4.75;;;;;;;28.96;41.24;100826.72;1709996;82;21067;-60
2021/08/16 12:39:08;;;;;;;7.15;4.95;;;;;;;28.92;41.46;100821.71;1697628;82;22186;-61
2021/08/16 12:41:35;;;;;;;7.92;5.08;;;;;;;28.90;42.06;100823.25;1706249;82;20929;-60
2021/08/16 12:44:02;;;;;;;9.68;4.90;;;;;;;28.87;42.34;100822.22;1707878;82;21099;-60
2021/08/16 12:46:35;;;;;;;7.62;4.62;;;;;;;28.85;42.17;100823.79;1708385;82;21767;-61
2021/08/16 12:49:04;;;;;;;8.48;5.33;;;;;;;28.85;42.58;100816.89;1707791;82;21505;-61
2021/08/16 12:51:33;;;;;;;10.78;5.40;;;;;;;28.85;42.42;100817.39;1707037;82;22424;-63
2021/08/16 12:54:01;;;;;;;8.40;5.35;;;;;;;28.83;42.35;100814.80;1704315;82;21127;-60
2021/08/16 12:56:28;;;;;;;9.70;5.55;;;;;;;28.84;42.27;100817.89;1710371;82;21374;-60
2021/08/16 12:58:56;;;;;;;8.18;5.30;;;;;;;28.85;42.10;100806.36;1701683;82;21532;-61
2021/08/16 13:01:25;;;;;;;8.88;5.40;;;;;;;28.86;42.18;100806.20;1706809;82;21550;-61
2021/08/16 13:03:52;;;;;;;11.78;5.47;;;;;;;28.85;42.94;100807.23;1708542;82;21172;-60
2021/08/16 13:06:20;;;;;;;9.13;5.47;;;;;;;28.87;43.44;100806.55;1714650;82;21434;-59
2021/08/16 13:08:47;;;;;;;9.98;5.35;;;;;;;28.87;43.40;100802.41;1705148;82;21829;-60
2021/08/16 13:11:16;;;;;;;13.28;5.60;;;;;;;28.87;43.48;100803.78;1705847;82;21121;-61
2021/08/16 13:13:45;;;;;;;12.10;6.20;;;;;;;28.84;42.84;100801.88;1711242;82;21063;-60
2021/08/16 13:16:13;;;;;;;16.45;5.97;;;;;;;28.82;43.85;100802.57;1703893;82;21103;-60
2021/08/16 13:18:40;;;;;;;12.53;6.83;;;;;;;28.81;44.84;100797.56;1711332;82;21603;-59
2021/08/16 13:21:07;;;;;;;10.90;6.47;;;;;;;28.81;46.70;100796.18;1728779;81;21119;-61
2021/08/16 13:23:35;;;;;;;12.03;6.37;;;;;;;28.80;48.58;100796.37;1703598;82;21115;-60
2021/08/16 13:26:02;;;;;;;13.03;6.20;;;;;;;28.73;48.95;100791.48;1713870;82;21568;-60
2021/08/16 13:28:31;;;;;;;24.63;15.95;;;;;;;28.68;49.27;100793.06;1728808;81;21095;-61
2021/08/16 13:30:59;;;;;;;11.35;6.12;;;;;;;28.65;49.31;100786.52;1696288;83;21625;-61
2021/08/16 13:33:26;;;;;;;14.35;6.15;;;;;;;28.59;48.45;100786.68;1719647;81;21044;-60
2021/08/16 13:35:54;;;;;;;11.22;6.22;;;;;;;28.54;48.37;100787.19;1713184;82;21147;-61
2021/08/16 13:38:21;;;;;;;17.05;6.40;;;;;;;28.50;48.65;100783.05;1706115;82;21355;-63
2021/08/16 13:40:49;;;;;;;10.28;5.60;;;;;;;28.46;48.19;100773.41;1700859;82;21299;-61
2021/08/16 13:43:16;;;;;;;11.18;5.92;;;;;;;28.41;48.02;100777.20;1697161;82;21096;-60
2021/08/16 13:45:43;;;;;;;9.03;5.83;;;;;;;28.37;48.79;100778.55;1709094;82;21094;-60
2021/08/16 13:48:12;;;;;;;13.32;6.20;;;;;;;28.30;49.16;100765.99;1708658;82;20992;-60
2021/08/16 13:50:41;;;;;;;9.23;5.83;;;;;;;28.24;49.56;100764.77;1689876;83;21122;-60
2021/08/16 13:53:08;;;;;;;10.60;6.00;;;;;;;28.19;49.75;100770.44;1703709;82;21949;-62
2021/08/16 13:55:35;;;;;;;13.05;5.60;;;;;;;28.16;50.27;100782.15;1674975;83;21180;-61
2021/08/16 13:58:28;;;;;;;12.58;6.25;;;;;;;28.13;51.02;100782.95;1710014;83;21553;-61
2021/08/16 14:00:48;;;;;;;10.53;6.58;;;;;;;28.10;50.15;100768.14;1706206;82;21065;-63
2021/08/16 14:03:18;;;;;;;11.75;6.15;;;;;;;28.10;50.04;100776.41;1718537;82;21155;-60
2021/08/16 14:05:48;;;;;;;10.60;5.97;;;;;;;28.09;49.29;100772.81;1722545;80;21116;-61